sensor_id;sensor_type;location;lat;lon;timestamp;pressure;altitude;pressure_sealevel;temperature;humidity
11710;BME280;5911;51.036;6.972;2023-04-08T00:01:41;101333.66;;;11.08;100.00
11710;BME280;5911;51.036;6.972;2023-04-08T00:04:10;101337.03;;;11.10;100.00
11710;BME280;5911;51.036;6.972;2023-04-08T00:06:40;101333.44;;;11.11;100.00
11710;BME280;5911;51.036;6.972;2023-04-08T00:09:07;101335.34;;;11.09;100.00
11710;BME280;5911;51.036;6.972;2023-04-08T00:11:35;101330.06;;;11.09;100.00
11710;BME280;5911;51.036;6.972;2023-04-08T00:14:03;101337.22;;;11.07;100.00
11710;BME280;5911;51.036;6.972;2023-04-08T00:16:31;101337.44;;;11.04;100.00
11710;BME280;5911;51.036;6.972;2023-04-08T00:18:59;101333.66;;;11.08;100.00
11710;BME280;5911;51.036;6.972;2023-04-08T00:21:29;101333.84;;;11.05;100.00
11710;BME280;5911;51.036;6.972;2023-04-08T00:23:57;101340.81;;;11.06;100.00
11710;BME280;5911;51.036;6.972;2023-04-08T00:26:24;101333.84;;;11.05;100.00
11710;BME280;5911;51.036;6.972;2023-04-08T00:28:52;101342.50;;;11.07;100.00
11710;BME280;5911;51.036;6.972;2023-04-08T00:31:20;101334.91;;;11.03;100.00
11710;BME280;5911;51.036;6.972;2023-04-08T00:33:49;101331.69;;;10.99;100.00
11710;BME280;5911;51.036;6.972;2023-04-08T00:36:17;101338.28;;;11.05;100.00
11710;BME280;5911;51.036;6.972;2023-04-08T00:38:46;101336.59;;;11.04;100.00
11710;BME280;5911;51.036;6.972;2023-04-08T00:41:14;101336.72;;;11.02;100.00
11710;BME280;5911;51.036;6.972;2023-04-08T00:43:42;101338.41;;;11.03;100.00
11710;BME280;5911;51.036;6.972;2023-04-08T00:46:10;101343.25;;;11.09;100.00
11710;BME280;5911;51.036;6.972;2023-04-08T00:48:38;101335.44;;;11.08;100.00
11710;BME280;5911;51.036;6.972;2023-04-08T00:51:06;101337.88;;;11.11;100.00
11710;BME280;5911;51.036;6.972;2023-04-08T00:53:35;101344.84;;;11.12;100.00
11710;BME280;5911;51.036;6.972;2023-04-08T00:56:04;101337.03;;;11.10;100.00
11710;BME280;5911;51.036;6.972;2023-04-08T00:58:32;101337.88;;;11.11;100.00
11710;BME280;5911;51.036;6.972;2023-04-08T01:01:05;101337.13;;;11.09;100.00
11710;BME280;5911;51.036;6.972;2023-04-08T01:03:41;101350.53;;;11.06;100.00
11710;BME280;5911;51.036;6.972;2023-04-08T01:06:22;101346.84;;;11.08;100.00
11710;BME280;5911;51.036;6.972;2023-04-08T01:08:55;101348.00;;;11.04;100.00
11710;BME280;5911;51.036;6.972;2023-04-08T01:11:26;101353.06;;;11.07;100.00
11710;BME280;5911;51.036;6.972;2023-04-08T01:13:55;101357.31;;;11.10;100.00
11710;BME280;5911;51.036;6.972;2023-04-08T01:16:24;101350.22;;;11.10;100.00
11710;BME280;5911;51.036;6.972;2023-04-08T01:18:53;101347.78;;;11.07;100.00
11710;BME280;5911;51.036;6.972;2023-04-08T01:21:23;101351.19;;;11.09;100.00
11710;BME280;5911;51.036;6.972;2023-04-08T01:23:57;101354.66;;;11.10;100.00
11710;BME280;5911;51.036;6.972;2023-04-08T01:26:29;101350.97;;;11.12;100.00
11710;BME280;5911;51.036;6.972;2023-04-08T01:28:59;101348.44;;;11.11;100.00
11710;BME280;5911;51.036;6.972;2023-04-08T01:31:29;101353.25;;;11.17;100.00
11710;BME280;5911;51.036;6.972;2023-04-08T01:33:59;101344.00;;;11.11;100.00
11710;BME280;5911;51.036;6.972;2023-04-08T01:36:29;101348.81;;;11.17;100.00
11710;BME280;5911;51.036;6.972;2023-04-08T01:38:59;101340.41;;;11.12;100.00
11710;BME280;5911;51.036;6.972;2023-04-08T01:41:30;101350.13;;;11.12;100.00
11710;BME280;5911;51.036;6.972;2023-04-08T01:44:00;101350.97;;;11.12;100.00
11710;BME280;5911;51.036;6.972;2023-04-08T01:46:29;101350.97;;;11.12;100.00
11710;BME280;5911;51.036;6.972;2023-04-08T01:48:59;101357.94;;;11.13;100.00
11710;BME280;5911;51.036;6.972;2023-04-08T01:51:27;101360.78;;;11.10;100.00
11710;BME280;5911;51.036;6.972;2023-04-08T01:53:57;101352.13;;;11.08;100.00
11710;BME280;5911;51.036;6.972;2023-04-08T01:56:27;101355.41;;;11.12;100.00
11710;BME280;5911;51.036;6.972;2023-04-08T01:58:58;101352.66;;;11.13;100.00
11710;BME280;5911;51.036;6.972;2023-04-08T02:01:28;101343.38;;;11.08;100.00
11710;BME280;5911;51.036;6.972;2023-04-08T02:03:57;101356.13;;;11.14;100.00
11710;BME280;5911;51.036;6.972;2023-04-08T02:06:27;101350.97;;;11.12;100.00
11710;BME280;5911;51.036;6.972;2023-04-08T02:08:55;101363.22;;;11.13;100.00
11710;BME280;5911;51.036;6.972;2023-04-08T02:11:23;101359.19;;;11.08;100.00
11710;BME280;5911;51.036;6.972;2023-04-08T02:13:51;101361.22;;;11.04;100.00
11710;BME280;5911;51.036;6.972;2023-04-08T02:16:23;101354.97;;;11.05;100.00
11710;BME280;5911;51.036;6.972;2023-04-08T02:18:55;101363.00;;;11.04;100.00
11710;BME280;5911;51.036;6.972;2023-04-08T02:21:30;101366.59;;;11.03;100.00
11710;BME280;5911;51.036;6.972;2023-04-08T02:24:02;101362.84;;;10.94;100.00
11710;BME280;5911;51.036;6.972;2023-04-08T02:26:32;101357.34;;;10.97;100.00
11710;BME280;5911;51.036;6.972;2023-04-08T02:29:01;101362.63;;;10.97;100.00
11710;BME280;5911;51.036;6.972;2023-04-08T02:31:32;101361.41;;;11.01;100.00
11710;BME280;5911;51.036;6.972;2023-04-08T02:34:01;101367.44;;;11.03;100.00
11710;BME280;5911;51.036;6.972;2023-04-08T02:36:30;101360.94;;;10.96;100.00
11710;BME280;5911;51.036;6.972;2023-04-08T02:39:02;101361.41;;;11.01;100.00
11710;BME280;5911;51.036;6.972;2023-04-08T02:41:30;101366.00;;;10.99;100.00
11710;BME280;5911;51.036;6.972;2023-04-08T02:43:57;101359.03;;;10.98;100.00
11710;BME280;5911;51.036;6.972;2023-04-08T02:46:25;101370.53;;;10.97;100.00
11710;BME280;5911;51.036;6.972;2023-04-08T02:48:54;101368.13;;;10.94;100.00
11710;BME280;5911;51.036;6.972;2023-04-08T02:51:22;101368.13;;;10.94;100.00
11710;BME280;5911;51.036;6.972;2023-04-08T02:53:50;101360.19;;;10.94;100.00
11710;BME280;5911;51.036;6.972;2023-04-08T02:56:18;101366.63;;;10.90;100.00
11710;BME280;5911;51.036;6.972;2023-04-08T02:58:47;101366.63;;;10.90;100.00
11710;BME280;5911;51.036;6.972;2023-04-08T03:01:15;101369.81;;;10.95;100.00
11710;BME280;5911;51.036;6.972;2023-04-08T03:03:43;101368.13;;;10.94;100.00
11710;BME280;5911;51.036;6.972;2023-04-08T03:06:12;101369.16;;;10.91;100.00
11710;BME280;5911;51.036;6.972;2023-04-08T03:08:40;101373.38;;;10.94;100.00
11710;BME280;5911;51.036;6.972;2023-04-08T03:11:08;101365.47;;;10.94;100.00
11710;BME280;5911;51.036;6.972;2023-04-08T03:13:36;101364.19;;;10.87;100.00
11710;BME280;5911;51.036;6.972;2023-04-08T03:16:04;101368.94;;;10.95;100.00
11710;BME280;5911;51.036;6.972;2023-04-08T03:18:32;101371.69;;;10.93;100.00
11710;BME280;5911;51.036;6.972;2023-04-08T03:21:00;101375.06;;;10.95;100.00
11710;BME280;5911;51.036;6.972;2023-04-08T03:23:30;101372.34;;;10.97;100.00
11710;BME280;5911;51.036;6.972;2023-04-08T03:25:58;101372.44;;;10.95;100.00
11710;BME280;5911;51.036;6.972;2023-04-08T03:28:25;101380.25;;;10.97;100.00
11710;BME280;5911;51.036;6.972;2023-04-08T03:30:53;101375.06;;;10.95;100.00
11710;BME280;5911;51.036;6.972;2023-04-08T03:33:21;101373.38;;;10.94;100.00
11710;BME280;5911;51.036;6.972;2023-04-08T03:35:49;101383.75;;;10.97;100.00
11710;BME280;5911;51.036;6.972;2023-04-08T03:38:17;101381.09;;;10.97;100.00
11710;BME280;5911;51.036;6.972;2023-04-08T03:40:46;101380.34;;;10.95;100.00
11710;BME280;5911;51.036;6.972;2023-04-08T03:43:14;101382.88;;;10.97;100.00
11710;BME280;5911;51.036;6.972;2023-04-08T03:45:42;101377.63;;;10.97;100.00
11710;BME280;5911;51.036;6.972;2023-04-08T03:48:09;101372.34;;;10.97;100.00
11710;BME280;5911;51.036;6.972;2023-04-08T03:50:37;101377.81;;;10.93;100.00
11710;BME280;5911;51.036;6.972;2023-04-08T03:53:05;101376.88;;;10.95;100.00
11710;BME280;5911;51.036;6.972;2023-04-08T03:55:36;101377.81;;;10.93;100.00
11710;BME280;5911;51.036;6.972;2023-04-08T03:58:05;101379.72;;;10.91;100.00
11710;BME280;5911;51.036;6.972;2023-04-08T04:00:34;101380.56;;;10.92;100.00
11710;BME280;5911;51.036;6.972;2023-04-08T04:03:02;101376.97;;;10.93;100.00
11710;BME280;5911;51.036;6.972;2023-04-08T04:05:30;101379.63;;;10.93;100.00
11710;BME280;5911;51.036;6.972;2023-04-08T04:07:58;101373.38;;;10.94;100.00
11710;BME280;5911;51.036;6.972;2023-04-08T04:10:25;101385.75;;;10.93;100.00
11710;BME280;5911;51.036;6.972;2023-04-08T04:12:53;101378.56;;;10.96;100.00
11710;BME280;5911;51.036;6.972;2023-04-08T04:15:22;101384.69;;;10.96;100.00
11710;BME280;5911;51.036;6.972;2023-04-08T04:17:50;101383.94;;;10.94;100.00
11710;BME280;5911;51.036;6.972;2023-04-08T04:20:18;101383.94;;;10.94;100.00
11710;BME280;5911;51.036;6.972;2023-04-08T04:22:47;101383.94;;;10.94;100.00
11710;BME280;5911;51.036;6.972;2023-04-08T04:25:15;101387.53;;;10.93;100.00
11710;BME280;5911;51.036;6.972;2023-04-08T04:27:42;101391.88;;;10.94;100.00
11710;BME280;5911;51.036;6.972;2023-04-08T04:30:10;101393.03;;;10.90;100.00
11710;BME280;5911;51.036;6.972;2023-04-08T04:32:42;101394.81;;;10.89;100.00
11710;BME280;5911;51.036;6.972;2023-04-08T04:35:11;101393.66;;;10.93;100.00
11710;BME280;5911;51.036;6.972;2023-04-08T04:37:39;101394.72;;;10.91;100.00
11710;BME280;5911;51.036;6.972;2023-04-08T04:40:07;101402.63;;;10.91;100.00
11710;BME280;5911;51.036;6.972;2023-04-08T04:42:35;101396.63;;;10.89;100.00
11710;BME280;5911;51.036;6.972;2023-04-08T04:45:03;101401.91;;;10.89;100.00
11710;BME280;5911;51.036;6.972;2023-04-08T04:47:31;101404.53;;;10.89;100.00
11710;BME280;5911;51.036;6.972;2023-04-08T04:50:01;101407.16;;;10.89;100.00
11710;BME280;5911;51.036;6.972;2023-04-08T04:52:28;101416.69;;;10.91;100.00
11710;BME280;5911;51.036;6.972;2023-04-08T04:54:56;101412.44;;;10.89;100.00
11710;BME280;5911;51.036;6.972;2023-04-08T04:57:24;101412.25;;;10.92;100.00
11710;BME280;5911;51.036;6.972;2023-04-08T04:59:52;101410.75;;;10.88;100.00
11710;BME280;5911;51.036;6.972;2023-04-08T05:02:20;101409.31;;;10.84;100.00
11710;BME280;5911;51.036;6.972;2023-04-08T05:04:48;101410.03;;;10.86;100.00
11710;BME280;5911;51.036;6.972;2023-04-08T05:07:17;101411.72;;;10.87;100.00
11710;BME280;5911;51.036;6.972;2023-04-08T05:09:45;101412.66;;;10.86;100.00
11710;BME280;5911;51.036;6.972;2023-04-08T05:12:12;101416.25;;;10.85;100.00
11710;BME280;5911;51.036;6.972;2023-04-08T05:14:40;101421.53;;;10.85;100.00
11710;BME280;5911;51.036;6.972;2023-04-08T05:17:08;101409.41;;;10.82;100.00
11710;BME280;5911;51.036;6.972;2023-04-08T05:19:36;101424.16;;;10.85;100.00
11710;BME280;5911;51.036;6.972;2023-04-08T05:22:04;101412.56;;;10.75;100.00
11710;BME280;5911;51.036;6.972;2023-04-08T05:24:33;101423.22;;;10.86;100.00
11710;BME280;5911;51.036;6.972;2023-04-08T05:27:01;101428.63;;;10.84;100.00
11710;BME280;5911;51.036;6.972;2023-04-08T05:29:29;101426.19;;;10.81;100.00
11710;BME280;5911;51.036;6.972;2023-04-08T05:31:58;101426.00;;;10.84;100.00
11710;BME280;5911;51.036;6.972;2023-04-08T05:34:25;101424.16;;;10.85;100.00
11710;BME280;5911;51.036;6.972;2023-04-08T05:36:53;101429.97;;;10.90;100.00
11710;BME280;5911;51.036;6.972;2023-04-08T05:39:21;101436.75;;;10.94;100.00
11710;BME280;5911;51.036;6.972;2023-04-08T05:41:50;101443.06;;;10.91;100.00
11710;BME280;5911;51.036;6.972;2023-04-08T05:44:18;101445.41;;;10.96;100.00
11710;BME280;5911;51.036;6.972;2023-04-08T05:46:47;101449.00;;;10.95;100.00
11710;BME280;5911;51.036;6.972;2023-04-08T05:49:15;101450.69;;;10.96;100.00
11710;BME280;5911;51.036;6.972;2023-04-08T05:51:43;101446.84;;;11.00;100.00
11710;BME280;5911;51.036;6.972;2023-04-08T05:54:11;101455.50;;;11.02;100.00
11710;BME280;5911;51.036;6.972;2023-04-08T05:56:39;101459.84;;;11.03;100.00
11710;BME280;5911;51.036;6.972;2023-04-08T05:59:08;101457.19;;;11.03;100.00
11710;BME280;5911;51.036;6.972;2023-04-08T06:01:36;101452.13;;;11.00;100.00
11710;BME280;5911;51.036;6.972;2023-04-08T06:04:04;101466.41;;;11.10;100.00
11710;BME280;5911;51.036;6.972;2023-04-08T06:06:32;101469.03;;;11.10;100.00
11710;BME280;5911;51.036;6.972;2023-04-08T06:09:00;101468.19;;;11.10;100.00
11710;BME280;5911;51.036;6.972;2023-04-08T06:11:28;101472.19;;;11.15;100.00
11710;BME280;5911;51.036;6.972;2023-04-08T06:13:56;101472.91;;;11.17;100.00
11710;BME280;5911;51.036;6.972;2023-04-08T06:16:25;101470.91;;;11.21;100.00
11710;BME280;5911;51.036;6.972;2023-04-08T06:18:53;101470.38;;;11.16;100.00
11710;BME280;5911;51.036;6.972;2023-04-08T06:21:21;101477.25;;;11.18;100.00
11710;BME280;5911;51.036;6.972;2023-04-08T06:23:49;101474.41;;;11.21;100.00
11710;BME280;5911;51.036;6.972;2023-04-08T06:26:16;101478.72;;;11.22;100.00
11710;BME280;5911;51.036;6.972;2023-04-08T06:28:44;101489.94;;;11.26;100.00
11710;BME280;5911;51.036;6.972;2023-04-08T06:31:12;101487.78;;;11.31;100.00
11710;BME280;5911;51.036;6.972;2023-04-08T06:33:41;101482.75;;;11.28;100.00
11710;BME280;5911;51.036;6.972;2023-04-08T06:36:12;101479.03;;;11.31;100.00
11710;BME280;5911;51.036;6.972;2023-04-08T06:38:40;101482.84;;;11.26;100.00
11710;BME280;5911;51.036;6.972;2023-04-08T06:41:08;101487.81;;;11.18;100.00
11710;BME280;5911;51.036;6.972;2023-04-08T06:43:35;101486.88;;;11.19;100.00
11710;BME280;5911;51.036;6.972;2023-04-08T06:46:04;101494.38;;;11.25;100.00
11710;BME280;5911;51.036;6.972;2023-04-08T06:48:32;101492.22;;;11.31;100.00
11710;BME280;5911;51.036;6.972;2023-04-08T06:51:01;101493.50;;;11.38;100.00
11710;BME280;5911;51.036;6.972;2023-04-08T06:53:30;101495.19;;;11.39;100.00
11710;BME280;5911;51.036;6.972;2023-04-08T06:55:59;101497.31;;;11.34;100.00
11710;BME280;5911;51.036;6.972;2023-04-08T06:58:27;101499.00;;;11.35;100.00
11710;BME280;5911;51.036;6.972;2023-04-08T07:00:55;101499.00;;;11.35;100.00
11710;BME280;5911;51.036;6.972;2023-04-08T07:03:23;101508.19;;;11.42;100.00
11710;BME280;5911;51.036;6.972;2023-04-08T07:05:51;101508.94;;;11.44;100.00
11710;BME280;5911;51.036;6.972;2023-04-08T07:08:20;101510.81;;;11.42;100.00
11710;BME280;5911;51.036;6.972;2023-04-08T07:10:48;101513.25;;;11.45;100.00
11710;BME280;5911;51.036;6.972;2023-04-08T07:13:16;101516.31;;;11.39;100.00
11710;BME280;5911;51.036;6.972;2023-04-08T07:15:43;101506.53;;;11.28;100.00
11710;BME280;5911;51.036;6.972;2023-04-08T07:18:11;101515.91;;;11.32;100.00
11710;BME280;5911;51.036;6.972;2023-04-08T07:20:39;101517.59;;;11.33;100.00
11710;BME280;5911;51.036;6.972;2023-04-08T07:23:07;101510.28;;;11.37;100.00
11710;BME280;5911;51.036;6.972;2023-04-08T07:25:36;101520.44;;;11.43;100.00
11710;BME280;5911;51.036;6.972;2023-04-08T07:28:04;101521.19;;;11.45;100.00
11710;BME280;5911;51.036;6.972;2023-04-08T07:30:32;101529.41;;;11.53;100.00
11710;BME280;5911;51.036;6.972;2023-04-08T07:33:00;101531.09;;;11.54;100.00
11710;BME280;5911;51.036;6.972;2023-04-08T07:35:28;101531.63;;;11.46;100.00
11710;BME280;5911;51.036;6.972;2023-04-08T07:37:57;101536.59;;;11.51;100.00
11710;BME280;5911;51.036;6.972;2023-04-08T07:40:25;101525.47;;;11.46;100.00
11710;BME280;5911;51.036;6.972;2023-04-08T07:42:54;101541.88;;;11.51;100.00
11710;BME280;5911;51.036;6.972;2023-04-08T07:45:22;101542.41;;;11.56;100.00
11710;BME280;5911;51.036;6.972;2023-04-08T07:47:50;101539.31;;;11.62;100.00
11710;BME280;5911;51.036;6.972;2023-04-08T07:50:18;101552.84;;;11.70;100.00
11710;BME280;5911;51.036;6.972;2023-04-08T07:52:45;101550.94;;;11.72;100.00
11710;BME280;5911;51.036;6.972;2023-04-08T07:55:13;101555.78;;;11.78;100.00
11710;BME280;5911;51.036;6.972;2023-04-08T07:57:41;101557.47;;;11.79;100.00
11710;BME280;5911;51.036;6.972;2023-04-08T08:00:11;101551.97;;;11.82;100.00
11710;BME280;5911;51.036;6.972;2023-04-08T08:02:46;101562.88;;;11.90;100.00
11710;BME280;5911;51.036;6.972;2023-04-08T08:05:14;101568.75;;;11.94;100.00
11710;BME280;5911;51.036;6.972;2023-04-08T08:07:42;101564.19;;;11.96;100.00
11710;BME280;5911;51.036;6.972;2023-04-08T08:10:10;101565.25;;;11.93;100.00
11710;BME280;5911;51.036;6.972;2023-04-08T08:12:39;101574.16;;;11.92;100.00
11710;BME280;5911;51.036;6.972;2023-04-08T08:15:08;101578.59;;;11.92;100.00
11710;BME280;5911;51.036;6.972;2023-04-08T08:17:38;101570.78;;;11.90;100.00
11710;BME280;5911;51.036;6.972;2023-04-08T08:20:06;101583.78;;;11.93;100.00
11710;BME280;5911;51.036;6.972;2023-04-08T08:22:34;101582.06;;;11.92;100.00
11710;BME280;5911;51.036;6.972;2023-04-08T08:25:22;101588.00;;;11.96;100.00
11710;BME280;5911;51.036;6.972;2023-04-08T08:27:52;101583.22;;;12.01;100.00
11710;BME280;5911;51.036;6.972;2023-04-08T08:30:20;101591.81;;;12.05;100.00
11710;BME280;5911;51.036;6.972;2023-04-08T08:32:50;101592.53;;;12.07;100.00
11710;BME280;5911;51.036;6.972;2023-04-08T08:35:17;101589.16;;;12.05;100.00
11710;BME280;5911;51.036;6.972;2023-04-08T08:37:45;101588.91;;;12.08;100.00
11710;BME280;5911;51.036;6.972;2023-04-08T08:40:14;101593.03;;;12.12;100.00
11710;BME280;5911;51.036;6.972;2023-04-08T08:42:49;101596.31;;;12.15;100.00
11710;BME280;5911;51.036;6.972;2023-04-08T08:45:18;101588.69;;;12.11;100.00
11710;BME280;5911;51.036;6.972;2023-04-08T08:47:51;101595.47;;;12.15;100.00
11710;BME280;5911;51.036;6.972;2023-04-08T08:50:19;101599.78;;;12.16;100.00
11710;BME280;5911;51.036;6.972;2023-04-08T08:52:47;101601.38;;;12.18;100.00
11710;BME280;5911;51.036;6.972;2023-04-08T08:55:17;101601.59;;;12.15;100.00
11710;BME280;5911;51.036;6.972;2023-04-08T08:58:05;101605.09;;;12.16;100.00
11710;BME280;5911;51.036;6.972;2023-04-08T09:00:35;101598.00;;;12.16;100.00
11710;BME280;5911;51.036;6.972;2023-04-08T09:03:17;101601.75;;;12.25;100.00
11710;BME280;5911;51.036;6.972;2023-04-08T09:05:46;101601.03;;;12.23;100.00
11710;BME280;5911;51.036;6.972;2023-04-08T09:08:28;101597.31;;;12.25;100.00
11710;BME280;5911;51.036;6.972;2023-04-08T09:11:10;101598.69;;;12.31;100.00
11710;BME280;5911;51.036;6.972;2023-04-08T09:13:38;101603.00;;;12.32;100.00
11710;BME280;5911;51.036;6.972;2023-04-08T09:16:07;101602.91;;;12.33;100.00
11710;BME280;5911;51.036;6.972;2023-04-08T09:18:37;101598.56;;;12.32;100.00
11710;BME280;5911;51.036;6.972;2023-04-08T09:21:06;101603.88;;;12.32;100.00
11710;BME280;5911;51.036;6.972;2023-04-08T09:23:38;101608.69;;;12.39;100.00
11710;BME280;5911;51.036;6.972;2023-04-08T09:26:07;101604.34;;;12.38;100.00
11710;BME280;5911;51.036;6.972;2023-04-08T09:28:36;101609.16;;;12.32;100.00
11710;BME280;5911;51.036;6.972;2023-04-08T09:31:18;101613.59;;;12.32;100.00
11710;BME280;5911;51.036;6.972;2023-04-08T09:33:48;101612.34;;;12.25;100.00
11710;BME280;5911;51.036;6.972;2023-04-08T09:36:16;101610.22;;;12.30;100.00
11710;BME280;5911;51.036;6.972;2023-04-08T09:38:44;101614.66;;;12.29;100.00
11710;BME280;5911;51.036;6.972;2023-04-08T09:41:13;101623.72;;;12.38;100.00
11710;BME280;5911;51.036;6.972;2023-04-08T09:43:43;101618.94;;;12.43;100.00
11710;BME280;5911;51.036;6.972;2023-04-08T09:46:15;101622.84;;;12.50;100.00
11710;BME280;5911;51.036;6.972;2023-04-08T09:48:55;101623.94;;;12.59;100.00
11710;BME280;5911;51.036;6.972;2023-04-08T09:51:24;101627.66;;;12.56;100.00
11710;BME280;5911;51.036;6.972;2023-04-08T09:53:59;101629.41;;;12.68;100.00
11710;BME280;5911;51.036;6.972;2023-04-08T09:56:33;101631.38;;;12.78;100.00
11710;BME280;5911;51.036;6.972;2023-04-08T09:59:08;101626.09;;;12.78;100.00
11710;BME280;5911;51.036;6.972;2023-04-08T10:01:44;101625.38;;;12.87;100.00
11710;BME280;5911;51.036;6.972;2023-04-08T10:04:15;101630.06;;;12.83;100.00
11710;BME280;5911;51.036;6.972;2023-04-08T10:06:48;101612.97;;;12.76;100.00
11710;BME280;5911;51.036;6.972;2023-04-08T10:09:20;101620.78;;;12.78;100.00
11710;BME280;5911;51.036;6.972;2023-04-08T10:11:48;101615.28;;;12.81;100.00
11710;BME280;5911;51.036;6.972;2023-04-08T10:14:16;101615.53;;;12.89;100.00
11710;BME280;5911;51.036;6.972;2023-04-08T10:16:44;101607.34;;;12.92;100.00
11710;BME280;5911;51.036;6.972;2023-04-08T10:19:36;101616.75;;;12.96;100.00
11710;BME280;5911;51.036;6.972;2023-04-08T10:22:44;101623.03;;;12.95;100.00
11710;BME280;5911;51.036;6.972;2023-04-08T10:25:28;101625.28;;;12.99;100.00
11710;BME280;5911;51.036;6.972;2023-04-08T10:27:56;101633.25;;;12.99;100.00
11710;BME280;5911;51.036;6.972;2023-04-08T10:30:40;101628.09;;;12.98;100.00
11710;BME280;5911;51.036;6.972;2023-04-08T10:33:10;101630.75;;;13.09;100.00
11710;BME280;5911;51.036;6.972;2023-04-08T10:35:42;101635.16;;;13.21;100.00
11710;BME280;5911;51.036;6.972;2023-04-08T10:38:12;101624.94;;;13.28;100.00
11710;BME280;5911;51.036;6.972;2023-04-08T10:40:40;101637.94;;;13.31;100.00
11710;BME280;5911;51.036;6.972;2023-04-08T10:43:09;101634.69;;;13.27;100.00
11710;BME280;5911;51.036;6.972;2023-04-08T10:45:38;101635.84;;;13.12;100.00
11710;BME280;5911;51.036;6.972;2023-04-08T10:48:16;101620.84;;;13.00;100.00
11710;BME280;5911;51.036;6.972;2023-04-08T10:50:52;101621.09;;;12.97;100.00
11710;BME280;5911;51.036;6.972;2023-04-08T10:53:25;101642.88;;;13.00;100.00
11710;BME280;5911;51.036;6.972;2023-04-08T10:55:53;101619.41;;;12.96;100.00
11710;BME280;5911;51.036;6.972;2023-04-08T10:58:22;101626.75;;;13.03;100.00
11710;BME280;5911;51.036;6.972;2023-04-08T11:00:49;101634.16;;;13.11;100.00
11710;BME280;5911;51.036;6.972;2023-04-08T11:03:18;101626.47;;;13.19;100.00
11710;BME280;5911;51.036;6.972;2023-04-08T11:05:48;101625.28;;;13.23;100.00
11710;BME280;5911;51.036;6.972;2023-04-08T11:08:17;101622.41;;;13.26;100.00
11710;BME280;5911;51.036;6.972;2023-04-08T11:10:47;101611.31;;;13.32;100.00
11710;BME280;5911;51.036;6.972;2023-04-08T11:13:15;101617.25;;;13.47;100.00
11710;BME280;5911;51.036;6.972;2023-04-08T11:15:43;101603.63;;;13.63;100.00
11710;BME280;5911;51.036;6.972;2023-04-08T11:18:11;101607.75;;;13.56;100.00
11710;BME280;5911;51.036;6.972;2023-04-08T11:20:38;101617.63;;;13.54;100.00
11710;BME280;5911;51.036;6.972;2023-04-08T11:23:11;101620.84;;;13.46;100.00
11710;BME280;5911;51.036;6.972;2023-04-08T11:25:41;101618.91;;;13.37;100.00
11710;BME280;5911;51.036;6.972;2023-04-08T11:28:10;101616.38;;;13.35;100.00
11710;BME280;5911;51.036;6.972;2023-04-08T11:30:39;101613.25;;;13.30;100.00
11710;BME280;5911;51.036;6.972;2023-04-08T11:33:07;101616.03;;;13.29;100.00
11710;BME280;5911;51.036;6.972;2023-04-08T11:35:38;101618.81;;;13.27;100.00
11710;BME280;5911;51.036;6.972;2023-04-08T11:38:07;101612.91;;;13.35;100.00
11710;BME280;5911;51.036;6.972;2023-04-08T11:40:35;101614.69;;;13.34;100.00
11710;BME280;5911;51.036;6.972;2023-04-08T11:43:09;101615.41;;;13.25;100.00
11710;BME280;5911;51.036;6.972;2023-04-08T11:45:38;101605.91;;;13.23;100.00
11710;BME280;5911;51.036;6.972;2023-04-08T11:48:10;101604.03;;;13.12;100.00
11710;BME280;5911;51.036;6.972;2023-04-08T11:50:38;101603.31;;;13.10;100.00
11710;BME280;5911;51.036;6.972;2023-04-08T11:53:15;101614.53;;;13.14;100.00
11710;BME280;5911;51.036;6.972;2023-04-08T11:55:43;101614.81;;;13.22;100.00
11710;BME280;5911;51.036;6.972;2023-04-08T11:58:12;101604.47;;;13.41;100.00
11710;BME280;5911;51.036;6.972;2023-04-08T12:00:40;101607.72;;;13.45;100.00
11710;BME280;5911;51.036;6.972;2023-04-08T12:03:08;101603.25;;;13.45;100.00
11710;BME280;5911;51.036;6.972;2023-04-08T12:05:37;101605.31;;;13.42;100.00
11710;BME280;5911;51.036;6.972;2023-04-08T12:08:04;101606.91;;;13.44;100.00
11710;BME280;5911;51.036;6.972;2023-04-08T12:10:32;101602.44;;;13.56;100.00
11710;BME280;5911;51.036;6.972;2023-04-08T12:13:00;101607.63;;;13.57;100.00
11710;BME280;5911;51.036;6.972;2023-04-08T12:15:30;101608.59;;;13.56;100.00
11710;BME280;5911;51.036;6.972;2023-04-08T12:17:58;101617.63;;;13.54;100.00
11710;BME280;5911;51.036;6.972;2023-04-08T12:20:26;101604.81;;;13.48;96.13
11710;BME280;5911;51.036;6.972;2023-04-08T12:22:53;101615.09;;;13.41;94.67
11710;BME280;5911;51.036;6.972;2023-04-08T12:25:21;101620.22;;;13.31;90.72
11710;BME280;5911;51.036;6.972;2023-04-08T12:27:49;101615.66;;;13.33;93.12
11710;BME280;5911;51.036;6.972;2023-04-08T12:30:17;101619.50;;;13.29;91.59
11710;BME280;5911;51.036;6.972;2023-04-08T12:32:47;101625.50;;;13.20;90.51
11710;BME280;5911;51.036;6.972;2023-04-08T12:35:15;101618.53;;;13.19;92.26
11710;BME280;5911;51.036;6.972;2023-04-08T12:37:42;101624.78;;;13.18;93.75
11710;BME280;5911;51.036;6.972;2023-04-08T12:40:11;101619.50;;;13.18;90.85
11710;BME280;5911;51.036;6.972;2023-04-08T12:42:39;101617.56;;;13.20;89.38
11710;BME280;5911;51.036;6.972;2023-04-08T12:45:07;101614.81;;;13.22;87.37
11710;BME280;5911;51.036;6.972;2023-04-08T12:47:35;101621.69;;;13.24;89.39
11710;BME280;5911;51.036;6.972;2023-04-08T12:50:05;101620.94;;;13.22;90.66
11710;BME280;5911;51.036;6.972;2023-04-08T12:52:35;101617.78;;;13.17;86.48
11710;BME280;5911;51.036;6.972;2023-04-08T12:55:03;101619.25;;;13.21;90.34
11710;BME280;5911;51.036;6.972;2023-04-08T12:57:31;101615.34;;;13.14;87.59
11710;BME280;5911;51.036;6.972;2023-04-08T12:59:59;101618.88;;;13.15;87.67
11710;BME280;5911;51.036;6.972;2023-04-08T13:02:27;101618.53;;;13.19;89.90